KEGEKPGA

Guest
Details From KEGE - EAGLE CO RGNL
To KPGA - PAGE MUNI
Flight Number -
Tags decoded
Created
Modified
Stats Distance 297 nm / 550 km
Max Altitude 0 ft / 0 m
Waypoints 6
Social Downloads 1
Likes 0
Share VATSIM

Download

Looking for another format? Having issues loading an existing format? Contact us
Advertisement - Login to hide

Notes

Requested: KEGE DBL JNC HVE PGA KPGA

Route

KEGE DBL JNC HVE PGA KPGA

ID Type Via Altitude Latitude Longitude Leg Dist Tot Dist Heading (true) Name
O KEGE APT - 0 ft / 0 m 39.64257˚ -106.91770˚ - 0 nm - EAGLE CO RGNL
DBL VOR - 0 ft / 0 m 39.43933˚ -106.89467˚ 12 nm 12 nm 175° / 175° RED TABLE VOR-DME
JNC VOR - 0 ft / 0 m 39.05956˚ -108.79258˚ 91 nm 103 nm 256° / 255° GRAND JUNCTION VOR-DME
HVE VOR - 0 ft / 0 m 38.41681˚ -110.69972˚ 97 nm 200 nm 247° / 246° HANKSVILLE VORTAC
PGA VOR - 0 ft / 0 m 36.93106˚ -111.44744˚ 96 nm 296 nm 202° / 201° PAGE VOR-DME
O KPGA APT - 0 ft / 0 m 36.92718˚ -111.44882˚ 0 nm 297 nm 196° / 196° PAGE MUNI

Altitude Profile

Advertisement - Login to hide

Weather


0- 5 10 15 20 25 30 35+ Temperature / ° C

Clouds and Precipitation
Forecast for 2017-12-15 00:00 UTC. Updated an hour ago

Ground ~20,000 ft ~40,000 ft Winds

KEGE

Details ICAO KEGE (EGE)
Name EAGLE CO RGNL
Region United States
Timezone America/Denver (UTC-7.0)
Stats Elevation 6,540 ft / 1,993 m (AMSL)
Location 39.642567° -106.917696°
Runways 1
Magnetic Variation 9.165° E

METAR

KEGE 142356Z COR 00000KT 10SM CLR 00/M12 A3032 RMK AO2 SLP307 T00001117 10039 21022 51016

Decode

TAF

KEGE 142337Z 1500/1518 08007KT P6SM SCT060 FM150100 17004KT P6SM FEW090 FEW250 FM151200 13005KT P6SM FEW250 FM151700 25003KT P6SM SKC AMD LTD TO CLD VIS AND WIND 1506/1514

Decode

Departure Runways

ID Width Length Bearing (true) Bearing (mag) Surface Threshold Offset Overrun Length
07 150 ft / 46 m 7,981 ft / 2,433 m 81.90° 72.73° Asphalt 0 ft / 0 m 0 ft / 0 m
25 150 ft / 46 m 7,981 ft / 2,433 m 261.92° 252.75° Asphalt 0 ft / 0 m 0 ft / 0 m

KPGA

Details ICAO KPGA (PGA)
Name PAGE MUNI
Region United States
Timezone America/Denver (UTC-7.0)
Stats Elevation 4,313 ft / 1,315 m (AMSL)
Location 36.927176° -111.448815°
Runways 2
Magnetic Variation 10.662° E

METAR

KPGA 142353Z AUTO 12004KT 10SM CLR 10/M09 A3023 RMK AO2 SLP226 T01001089 10133 20100 53006 TSNO

Decode

TAF

KPGA 142334Z 1500/1524 VRB05KT P6SM SCT250

Decode

Destination Runways

ID Width Length Bearing (true) Bearing (mag) Surface Threshold Offset Overrun Length
07 100 ft / 30 m 2,196 ft / 669 m 82.10° 71.44° Asphalt 588 ft / 179 m 0 ft / 0 m
15 150 ft / 46 m 5,959 ft / 1,816 m 170.27° 159.61° Asphalt 0 ft / 0 m 0 ft / 0 m
25 100 ft / 30 m 2,196 ft / 669 m 262.10° 251.44° Asphalt 0 ft / 0 m 0 ft / 0 m
33 150 ft / 46 m 5,959 ft / 1,816 m 350.27° 339.61° Asphalt 0 ft / 0 m 0 ft / 0 m